Time;durP1;ratioP1;P1;durP2;ratioP2;P2;SDS_P1;SDS_P2;PMS_P1;PMS_P2;Temp;Humidity;BMP_temperature;BMP_pressure;BME280_temperature;BME280_humidity;BME280_pressure;Samples;Min_cycle;Max_cycle;Signal;HPM_P1;HPM_P2
2022/08/26 00:01:35;;;;;;;;;;;;;;;31.60;62.83;98672.78;5051603;28;19924;-42
2022/08/26 00:04:00;;;;;;;;;;;;;;;30.70;63.83;98677.59;5053986;28;19920;-42
2022/08/26 00:06:25;;;;;;;;;;;;;;;31.41;62.07;98668.97;5051699;28;19927;-42
2022/08/26 00:08:50;;;;;;;;;;;;;;;31.18;63.19;98685.06;5053367;28;19981;-42
2022/08/26 00:11:16;;;;;;;;;;;;;;;31.03;64.22;98682.47;5053548;28;20506;-42
2022/08/26 00:13:41;;;;;;;;;;;;;;;30.89;64.50;98683.34;5054207;28;19970;-42
2022/08/26 00:16:07;;;;;;;;;;;;;;;30.83;65.84;98683.03;5052936;28;19927;-42
2022/08/26 00:18:33;;;;;;;;;;;;;;;31.02;66.97;98686.16;5050812;28;20412;-42
2022/08/26 00:20:58;;;;;;;;;;;;;;;31.12;65.21;98681.34;5053633;28;20494;-42
2022/08/26 00:23:23;;;;;;;;;;;;;;;31.35;63.57;98675.00;5052160;28;19967;-42
2022/08/26 00:25:48;;;;;;;;;;;;;;;31.57;64.33;98679.34;5051546;28;19929;-42
2022/08/26 00:28:14;;;;;;;;;;;;;;;30.56;67.24;98681.91;5052165;28;20026;-42
2022/08/26 00:30:39;;;;;;;;;;;;;;;31.31;64.98;98673.75;5052989;28;19959;-42
2022/08/26 00:33:04;;;;;;;;;;;;;;;31.27;65.07;98675.97;5052625;28;20514;-42
2022/08/26 00:35:30;;;;;;;;;;;;;;;31.46;63.50;98671.88;5052387;28;20495;-42
2022/08/26 00:37:55;;;;;;;;;;;;;;;31.25;64.13;98668.16;5050837;28;20440;-42
2022/08/26 00:40:23;;;;;;;;;;;;;;;30.84;65.00;98674.09;5051092;28;19920;-42
2022/08/26 00:42:48;;;;;;;;;;;;;;;30.91;66.81;98674.16;5053142;28;19960;-43
2022/08/26 00:45:14;;;;;;;;;;;;;;;31.45;64.43;98664.88;5049740;28;20018;-42
2022/08/26 00:47:42;;;;;;;;;;;;;;;31.35;63.73;98669.69;5051418;28;19920;-42
2022/08/26 00:50:10;;;;;;;;;;;;;;;31.18;65.04;98679.75;5053013;28;20009;-42
2022/08/26 00:52:35;;;;;;;;;;;;;;;31.32;67.04;98672.75;5051571;28;20305;-42
2022/08/26 00:55:06;;;;;;;;;;;;;;;30.22;68.26;98669.16;5050781;28;19925;-42
2022/08/26 00:57:32;;;;;;;;;;;;;;;30.52;69.23;98677.13;5050860;28;19920;-42
2022/08/26 00:59:57;;;;;;;;;;;;;;;29.99;71.79;98675.41;5043555;28;19920;-42
2022/08/26 01:02:23;;;;;;;;;;;;;;;30.54;70.49;98669.78;5052246;28;19920;-42
2022/08/26 01:04:49;;;;;;;;;;;;;;;30.77;69.57;98675.81;5051626;28;20305;-42
2022/08/26 01:07:14;;;;;;;;;;;;;;;30.92;67.61;98674.97;5051882;28;19982;-42
2022/08/26 01:09:40;;;;;;;;;;;;;;;30.72;67.12;98680.84;5050312;28;20392;-42
2022/08/26 01:12:05;;;;;;;;;;;;;;;31.07;66.98;98673.09;5049976;28;19921;-42
2022/08/26 01:14:31;;;;;;;;;;;;;;;31.18;67.42;98671.75;5052189;28;19928;-42
2022/08/26 01:16:57;;;;;;;;;;;;;;;30.99;68.14;98671.38;5048791;28;19977;-42
2022/08/26 01:19:26;;;;;;;;;;;;;;;30.96;67.34;98671.75;5048896;28;19992;-42
2022/08/26 01:22:17;;;;;;;;;;;;;;;30.90;67.72;98666.38;5049238;28;19994;-42
2022/08/26 01:24:43;;;;;;;;;;;;;;;30.00;71.17;98673.56;5048721;28;19920;-42
2022/08/26 01:27:09;;;;;;;;;;;;;;;30.20;70.86;98676.50;5051857;28;20008;-42
2022/08/26 01:29:35;;;;;;;;;;;;;;;29.60;74.68;98679.03;5050687;28;19993;-42
2022/08/26 01:32:00;;;;;;;;;;;;;;;30.58;71.70;98671.06;5049612;28;20046;-42
2022/08/26 01:34:34;;;;;;;;;;;;;;;30.98;69.74;98669.75;5051233;28;20397;-42
2022/08/26 01:37:00;;;;;;;;;;;;;;;30.79;70.29;98672.97;5051539;28;19920;-42
2022/08/26 01:39:26;;;;;;;;;;;;;;;30.81;68.83;98669.13;5052520;28;19920;-42
2022/08/26 01:41:52;;;;;;;;;;;;;;;30.63;68.65;98666.88;5047755;28;19927;-42
2022/08/26 01:44:18;;;;;;;;;;;;;;;31.08;68.57;98674.75;5040698;28;20526;-42
2022/08/26 01:46:44;;;;;;;;;;;;;;;30.56;70.47;98671.28;5048643;28;19956;-42
2022/08/26 01:49:10;;;;;;;;;;;;;;;30.14;72.49;98671.91;5049312;28;19966;-42
2022/08/26 01:51:38;;;;;;;;;;;;;;;30.78;70.02;98680.13;5051630;28;20354;-42
2022/08/26 01:54:04;;;;;;;;;;;;;;;30.84;69.84;98682.06;5053330;28;20184;-42
2022/08/26 01:56:30;;;;;;;;;;;;;;;30.74;70.70;98676.19;5055564;28;19965;-42
2022/08/26 01:58:56;;;;;;;;;;;;;;;31.04;69.63;98676.13;5054142;28;19934;-42
2022/08/26 02:01:22;;;;;;;;;;;;;;;30.78;68.74;98672.13;5052639;28;19931;-42
2022/08/26 02:03:58;;;;;;;;;;;;;;;31.08;69.20;98671.25;5053992;28;19920;-42
2022/08/26 02:06:23;;;;;;;;;;;;;;;30.75;67.26;98672.53;5055594;28;19921;-42
2022/08/26 02:08:51;;;;;;;;;;;;;;;30.73;71.31;98671.88;5055905;28;19920;-42
2022/08/26 02:11:16;;;;;;;;;;;;;;;30.88;68.59;98671.03;5053967;28;19973;-42
2022/08/26 02:13:46;;;;;;;;;;;;;;;30.88;67.95;98671.88;5054192;28;19920;-41
2022/08/26 02:16:11;;;;;;;;;;;;;;;30.26;70.37;98677.59;5053960;28;19924;-42
2022/08/26 02:18:37;;;;;;;;;;;;;;;30.85;71.82;98677.56;5054006;28;19920;-42
2022/08/26 02:21:03;;;;;;;;;;;;;;;31.18;67.90;98672.59;5053427;28;19920;-42
2022/08/26 02:23:28;;;;;;;;;;;;;;;31.04;65.80;98676.13;5054978;28;19928;-42
2022/08/26 02:26:04;;;;;;;;;;;;;;;31.09;68.27;98676.41;5054138;28;20707;-42
2022/08/26 02:28:30;;;;;;;;;;;;;;;30.84;71.85;98679.41;5053132;28;20369;-42
2022/08/26 02:30:56;;;;;;;;;;;;;;;30.84;72.50;98674.09;5053302;28;19931;-42
2022/08/26 02:33:21;;;;;;;;;;;;;;;30.55;73.87;98679.44;5052914;28;20297;-42
2022/08/26 02:35:46;;;;;;;;;;;;;;;31.12;70.05;98678.69;5054392;28;20300;-42
2022/08/26 02:38:12;;;;;;;;;;;;;;;30.99;66.99;98676.69;5055116;28;19994;-42
2022/08/26 02:40:39;;;;;;;;;;;;;;;30.94;68.80;98670.31;5054872;28;19920;-42
2022/08/26 02:43:04;;;;;;;;;;;;;;;30.24;71.92;98677.75;5056439;28;19974;-42
2022/08/26 02:45:30;;;;;;;;;;;;;;;30.90;69.65;98679.66;5052358;28;19999;-42
2022/08/26 02:47:56;;;;;;;;;;;;;;;31.00;69.98;98673.03;5053408;28;19974;-42
2022/08/26 02:50:22;;;;;;;;;;;;;;;31.00;70.10;98674.88;5053661;28;19924;-42
2022/08/26 02:52:47;;;;;;;;;;;;;;;28.11;84.83;98722.31;5055961;28;19924;-42
2022/08/26 02:55:12;;;;;;;;;;;;;;;27.60;94.03;98719.03;5052933;28;20468;-41
2022/08/26 02:57:38;;;;;;;;;;;;;;;27.41;95.88;98725.44;5053262;28;19967;-42
2022/08/26 03:00:04;;;;;;;;;;;;;;;27.48;96.20;98713.25;5053648;28;19964;-42
2022/08/26 03:02:29;;;;;;;;;;;;;;;28.25;91.28;98720.78;5051078;28;20102;-42
2022/08/26 03:04:54;;;;;;;;;;;;;;;27.74;92.54;98714.88;5053084;28;19920;-42
2022/08/26 03:07:20;;;;;;;;;;;;;;;28.41;90.05;98711.97;5052448;28;20038;-42
2022/08/26 03:09:45;;;;;;;;;;;;;;;29.47;84.23;98701.84;5055593;28;19952;-42
2022/08/26 03:12:10;;;;;;;;;;;;;;;29.85;79.23;98702.72;5054264;28;19920;-42
2022/08/26 03:14:36;;;;;;;;;;;;;;;29.78;78.08;98704.44;5053397;28;19960;-44
2022/08/26 03:17:01;;;;;;;;;;;;;;;30.19;77.18;98698.75;5053482;28;19924;-42
2022/08/26 03:19:26;;;;;;;;;;;;;;;30.18;76.85;98699.75;5053042;28;20338;-42
2022/08/26 03:21:52;;;;;;;;;;;;;;;29.80;78.41;98713.06;5054068;28;20375;-42
2022/08/26 03:24:17;;;;;;;;;;;;;;;29.79;79.49;98706.13;5052442;28;20434;-42
2022/08/26 03:26:43;;;;;;;;;;;;;;;29.65;78.60;98712.16;5050441;28;20163;-42
2022/08/26 03:31:53;;;;;;;;;;;;;;;29.96;77.62;98710.25;5053102;28;19965;-42
2022/08/26 03:34:18;;;;;;;;;;;;;;;29.87;76.56;98697.25;5054133;28;20384;-42
2022/08/26 03:36:43;;;;;;;;;;;;;;;29.81;77.36;98704.13;5050844;28;19965;-42
2022/08/26 03:39:09;;;;;;;;;;;;;;;29.59;79.33;98701.25;5053762;28;19920;-42
2022/08/26 03:41:35;;;;;;;;;;;;;;;29.93;77.20;98702.66;5052323;28;19924;-43
2022/08/26 03:44:01;;;;;;;;;;;;;;;29.86;76.51;98696.44;5052842;28;19926;-42
2022/08/26 03:46:26;;;;;;;;;;;;;;;29.80;77.15;98697.13;5050223;28;19921;-42
2022/08/26 03:48:51;;;;;;;;;;;;;;;29.88;76.59;98699.72;5053047;28;19917;-42
2022/08/26 03:51:17;;;;;;;;;;;;;;;29.93;76.51;98701.84;5051141;28;19967;-42
2022/08/26 03:53:42;;;;;;;;;;;;;;;29.83;76.62;98696.75;5052420;28;19978;-41
2022/08/26 03:56:07;;;;;;;;;;;;;;;29.93;75.85;98692.03;5051048;28;19916;-42
2022/08/26 03:58:33;;;;;;;;;;;;;;;29.73;75.23;98691.72;5054490;28;19947;-42
2022/08/26 04:00:58;;;;;;;;;;;;;;;29.70;76.76;98701.88;5051900;28;19916;-42
2022/08/26 04:06:07;;;;;;;;;;;;;;;29.58;78.88;98694.31;5052939;28;20471;-43
2022/08/26 04:08:33;;;;;;;;;;;;;;;29.65;78.11;98698.88;5053773;28;19925;-42
2022/08/26 04:11:00;;;;;;;;;;;;;;;29.78;77.09;98697.31;5052290;28;19916;-42
2022/08/26 04:13:25;;;;;;;;;;;;;;;29.66;78.24;98700.56;5049686;28;20437;-42
2022/08/26 04:15:50;;;;;;;;;;;;;;;29.60;77.80;98697.63;5050007;28;19931;-42
2022/08/26 04:18:15;;;;;;;;;;;;;;;29.28;79.47;98696.03;5053149;28;19974;-42
2022/08/26 04:20:41;;;;;;;;;;;;;;;29.44;80.53;98702.22;5053774;28;19947;-42
2022/08/26 04:23:06;;;;;;;;;;;;;;;29.50;80.30;98697.03;5051505;28;19928;-42
2022/08/26 04:25:31;;;;;;;;;;;;;;;29.63;80.14;98703.56;5053092;28;19932;-42
2022/08/26 04:27:56;;;;;;;;;;;;;;;29.53;80.88;98701.16;5052726;28;19920;-42
2022/08/26 04:30:22;;;;;;;;;;;;;;;29.40;82.04;98693.81;5051783;28;19920;-42
2022/08/26 04:32:47;;;;;;;;;;;;;;;29.50;82.14;98698.88;5051353;28;19965;-42
2022/08/26 04:35:13;;;;;;;;;;;;;;;29.49;82.30;98706.00;5052432;28;20027;-42
2022/08/26 04:37:38;;;;;;;;;;;;;;;29.45;82.39;98699.41;5051637;28;20426;-42
2022/08/26 04:40:04;;;;;;;;;;;;;;;29.49;82.66;98700.69;5053776;28;19931;-42
2022/08/26 04:42:30;;;;;;;;;;;;;;;29.50;82.93;98702.34;5053265;28;19975;-42
2022/08/26 04:44:56;;;;;;;;;;;;;;;29.40;82.52;98701.75;5051740;28;20282;-42
2022/08/26 04:47:21;;;;;;;;;;;;;;;29.48;83.06;98707.00;5050752;28;19967;-42
2022/08/26 04:49:46;;;;;;;;;;;;;;;29.48;83.24;98708.81;5050805;28;19927;-42
2022/08/26 04:52:11;;;;;;;;;;;;;;;29.49;82.67;98711.31;5051992;28;19941;-45
2022/08/26 04:54:37;;;;;;;;;;;;;;;29.63;82.28;98712.34;5050816;28;20250;-45
2022/08/26 04:57:02;;;;;;;;;;;;;;;29.58;82.59;98704.94;5044555;28;19920;-44
2022/08/26 04:59:27;;;;;;;;;;;;;;;29.48;83.10;98707.00;5048624;28;19921;-44
2022/08/26 05:01:58;;;;;;;;;;;;;;;29.48;83.13;98706.16;5049461;28;19959;-44
2022/08/26 05:04:23;;;;;;;;;;;;;;;29.31;82.41;98708.94;5050052;28;21151;-45
2022/08/26 05:06:49;;;;;;;;;;;;;;;29.34;83.58;98713.88;5049578;28;19920;-44
2022/08/26 05:09:14;;;;;;;;;;;;;;;29.44;83.76;98708.34;5051942;28;20384;-44
2022/08/26 05:11:39;;;;;;;;;;;;;;;29.26;84.70;98711.28;5049435;28;20506;-44
2022/08/26 05:14:05;;;;;;;;;;;;;;;29.33;84.91;98711.41;5051180;28;20003;-44
2022/08/26 05:16:30;;;;;;;;;;;;;;;28.89;86.31;98709.34;5051512;28;19928;-44
2022/08/26 05:18:56;;;;;;;;;;;;;;;28.85;87.81;98714.16;5051882;28;19923;-44
2022/08/26 05:21:22;;;;;;;;;;;;;;;28.25;93.11;98712.03;5051863;28;19916;-44
2022/08/26 05:23:50;;;;;;;;;;;;;;;28.74;90.87;98709.25;5053160;28;20977;-42
2022/08/26 05:26:15;;;;;;;;;;;;;;;29.08;87.95;98706.28;5051470;28;19927;-44
2022/08/26 05:28:41;;;;;;;;;;;;;;;28.95;82.88;98704.16;5050026;28;19949;-41
2022/08/26 05:31:16;;;;;;;;;;;;;;;29.32;84.42;98720.38;5051654;28;19988;-44
2022/08/26 05:33:42;;;;;;;;;;;;;;;29.46;82.09;98716.94;5051924;28;20016;-43
2022/08/26 05:36:08;;;;;;;;;;;;;;;29.29;78.97;98720.75;5052001;28;19916;-43
2022/08/26 05:38:34;;;;;;;;;;;;;;;29.14;83.53;98728.59;5050557;28;20433;-43
2022/08/26 05:40:59;;;;;;;;;;;;;;;29.53;80.11;98720.53;5052681;28;19967;-44
2022/08/26 05:43:24;;;;;;;;;;;;;;;29.42;83.11;98733.41;5052083;28;19977;-43
2022/08/26 05:45:49;;;;;;;;;;;;;;;29.42;82.53;98733.41;5052461;28;19923;-43
2022/08/26 05:48:16;;;;;;;;;;;;;;;29.52;81.96;98737.47;5052400;28;19920;-43
2022/08/26 05:50:48;;;;;;;;;;;;;;;29.02;84.86;98741.41;5051196;28;19921;-43
2022/08/26 05:53:14;;;;;;;;;;;;;;;28.97;84.07;98743.75;5050248;28;19921;-43
2022/08/26 05:55:43;;;;;;;;;;;;;;;28.63;84.28;98742.25;5051952;28;19931;-43
2022/08/26 05:58:09;;;;;;;;;;;;;;;28.59;86.84;98746.22;5050921;28;19920;-43
2022/08/26 06:00:34;;;;;;;;;;;;;;;28.65;88.49;98753.50;5052790;28;19924;-43
2022/08/26 06:02:59;;;;;;;;;;;;;;;28.17;91.50;98763.19;5051388;28;19916;-43
2022/08/26 06:05:25;;;;;;;;;;;;;;;28.06;93.16;98760.88;5051209;28;19974;-43
2022/08/26 06:10:35;;;;;;;;;;;;;;;26.82;100.00;98774.81;5052664;28;20078;-43
2022/08/26 06:13:00;;;;;;;;;;;;;;;27.14;100.00;98779.38;5051969;28;19916;-43
2022/08/26 06:15:25;;;;;;;;;;;;;;;27.58;100.00;98767.81;5050686;28;20446;-43
2022/08/26 06:17:50;;;;;;;;;;;;;;;26.21;100.00;98780.06;5048845;28;19921;-43
2022/08/26 06:20:16;;;;;;;;;;;;;;;27.04;100.00;98774.22;5050551;28;19951;-43
2022/08/26 06:25:37;;;;;;;;;;;;;;;27.46;100.00;98776.06;5051815;28;19927;-43
2022/08/26 06:28:02;;;;;;;;;;;;;;;27.02;100.00;98789.41;5052863;28;19916;-43
2022/08/26 06:30:28;;;;;;;;;;;;;;;27.94;100.00;98779.75;5051044;28;20583;-43
2022/08/26 06:32:53;;;;;;;;;;;;;;;27.41;100.00;98794.19;5052361;28;19925;-43
2022/08/26 06:35:18;;;;;;;;;;;;;;;27.13;100.00;98805.00;5049821;28;19935;-43
2022/08/26 06:37:43;;;;;;;;;;;;;;;26.67;100.00;98812.38;5051499;28;19935;-44
2022/08/26 06:40:09;;;;;;;;;;;;;;;26.86;100.00;98818.44;5054475;28;19927;-43
2022/08/26 06:42:34;;;;;;;;;;;;;;;26.59;100.00;98808.88;5056108;28;19954;-43
2022/08/26 06:45:00;;;;;;;;;;;;;;;27.08;100.00;98804.66;5055099;28;21029;-43
2022/08/26 06:47:25;;;;;;;;;;;;;;;26.68;100.00;98802.66;5055883;28;19920;-43
2022/08/26 06:49:50;;;;;;;;;;;;;;;27.39;100.00;98801.47;5054081;28;19920;-43
2022/08/26 06:52:16;;;;;;;;;;;;;;;28.44;100.00;98790.28;5055784;28;19924;-43
2022/08/26 06:54:42;;;;;;;;;;;;;;;28.87;100.00;98793.50;5054781;28;20441;-44
2022/08/26 06:57:07;;;;;;;;;;;;;;;28.68;100.00;98805.31;5055293;28;20995;-43
2022/08/26 06:59:32;;;;;;;;;;;;;;;27.64;100.00;98809.44;5053880;28;19920;-43
2022/08/26 07:01:58;;;;;;;;;;;;;;;28.77;100.00;98796.34;5054545;28;20765;-43
2022/08/26 07:04:23;;;;;;;;;;;;;;;28.99;100.00;98805.41;5056097;28;20713;-43
2022/08/26 07:06:49;;;;;;;;;;;;;;;28.65;100.00;98809.16;5053983;28;19927;-43
2022/08/26 07:09:15;;;;;;;;;;;;;;;27.58;100.00;98810.94;5056078;28;19919;-43
2022/08/26 07:11:41;;;;;;;;;;;;;;;28.42;100.00;98808.16;5054673;28;20699;-43
2022/08/26 07:14:06;;;;;;;;;;;;;;;28.77;100.00;98802.47;5056077;28;19935;-43
2022/08/26 07:16:31;;;;;;;;;;;;;;;29.70;100.00;98806.22;5054798;28;19916;-43
2022/08/26 07:18:57;;;;;;;;;;;;;;;29.55;100.00;98806.09;5054492;28;20894;-44
2022/08/26 07:21:23;;;;;;;;;;;;;;;29.59;97.30;98795.97;5053748;28;19970;-43
2022/08/26 07:23:48;;;;;;;;;;;;;;;29.80;99.02;98808.63;5055493;28;19921;-43
2022/08/26 07:26:19;;;;;;;;;;;;;;;29.24;100.00;98813.25;5053467;28;19932;-43
2022/08/26 07:28:45;;;;;;;;;;;;;;;29.82;95.96;98806.63;5054648;28;19916;-43
2022/08/26 07:31:11;;;;;;;;;;;;;;;29.94;100.00;98810.50;5055039;28;19932;-43
2022/08/26 07:33:37;;;;;;;;;;;;;;;28.27;100.00;98827.38;5055165;28;19955;-43
2022/08/26 07:36:02;;;;;;;;;;;;;;;28.21;100.00;98827.22;5053436;28;19924;-43
2022/08/26 07:38:28;;;;;;;;;;;;;;;27.99;100.00;98834.84;5054274;28;19920;-43
2022/08/26 07:40:53;;;;;;;;;;;;;;;27.26;100.00;98843.44;5055573;28;19927;-43
2022/08/26 07:43:18;;;;;;;;;;;;;;;26.77;100.00;98853.72;5051599;28;19916;-43
2022/08/26 07:45:44;;;;;;;;;;;;;;;26.81;100.00;98847.16;5050780;28;19924;-43
2022/08/26 07:48:09;;;;;;;;;;;;;;;26.75;100.00;98845.94;5054410;28;19917;-43
2022/08/26 07:50:34;;;;;;;;;;;;;;;26.78;100.00;98855.41;5054293;28;20461;-43
2022/08/26 07:53:01;;;;;;;;;;;;;;;26.26;100.00;98846.41;5054875;28;20354;-43
2022/08/26 07:55:26;;;;;;;;;;;;;;;26.14;100.00;98855.56;5052878;28;19935;-43
2022/08/26 07:57:52;;;;;;;;;;;;;;;27.24;100.00;98845.41;5053847;28;20370;-43
2022/08/26 08:00:17;;;;;;;;;;;;;;;28.21;100.00;98832.50;5053489;28;19921;-43
2022/08/26 08:02:43;;;;;;;;;;;;;;;26.80;100.00;98858.69;5053812;28;19920;-43
2022/08/26 08:05:09;;;;;;;;;;;;;;;26.01;100.00;98847.19;5049534;28;20530;-44
2022/08/26 08:07:34;;;;;;;;;;;;;;;26.65;100.00;98851.34;5053363;28;19920;-43
2022/08/26 08:10:00;;;;;;;;;;;;;;;27.68;100.00;98837.25;5051660;28;19996;-43
2022/08/26 08:12:25;;;;;;;;;;;;;;;26.63;100.00;98855.94;5053464;28;19985;-43
2022/08/26 08:14:51;;;;;;;;;;;;;;;25.95;100.00;98858.34;5053216;28;19924;-43
2022/08/26 08:17:16;;;;;;;;;;;;;;;26.55;100.00;98855.91;5053779;28;20389;-43
2022/08/26 08:19:41;;;;;;;;;;;;;;;26.40;100.00;98862.69;5051284;28;19940;-44
2022/08/26 08:22:07;;;;;;;;;;;;;;;26.28;100.00;98859.47;5053826;28;19927;-43
2022/08/26 08:24:32;;;;;;;;;;;;;;;26.82;100.00;98862.84;5051574;28;20042;-43
2022/08/26 08:26:58;;;;;;;;;;;;;;;26.98;100.00;98862.13;5053047;28;20027;-43
2022/08/26 08:29:23;;;;;;;;;;;;;;;26.52;100.00;98874.66;5052444;28;19920;-43
2022/08/26 08:31:49;;;;;;;;;;;;;;;26.03;100.00;98869.81;5052341;28;20339;-43
2022/08/26 08:34:14;;;;;;;;;;;;;;;27.54;100.00;98858.03;5053682;28;20070;-43
2022/08/26 08:36:39;;;;;;;;;;;;;;;27.80;100.00;98857.09;5053881;28;19923;-43
2022/08/26 08:39:04;;;;;;;;;;;;;;;26.76;100.00;98867.94;5053791;28;19959;-43
2022/08/26 08:41:30;;;;;;;;;;;;;;;26.22;100.00;98866.19;5053781;28;19970;-43
2022/08/26 08:43:55;;;;;;;;;;;;;;;27.26;100.00;98859.28;5050958;28;19963;-43
2022/08/26 08:46:20;;;;;;;;;;;;;;;26.98;100.00;98869.19;5047909;28;19968;-44
2022/08/26 08:48:47;;;;;;;;;;;;;;;27.54;100.00;98865.16;5052242;28;19916;-43
2022/08/26 08:51:21;;;;;;;;;;;;;;;26.82;100.00;98867.28;5052198;28;19920;-43
2022/08/26 08:53:48;;;;;;;;;;;;;;;26.87;100.00;98868.50;5050472;28;19927;-43
2022/08/26 08:56:16;;;;;;;;;;;;;;;27.30;100.00;98855.31;5051070;28;19924;-43
2022/08/26 08:59:01;;;;;;;;;;;;;;;26.69;100.00;98863.25;5051798;28;19921;-43
2022/08/26 09:01:31;;;;;;;;;;;;;;;26.97;100.00;98860.44;5051603;28;19924;-43
2022/08/26 09:04:08;;;;;;;;;;;;;;;27.71;100.00;98852.78;5051534;28;19917;-44
2022/08/26 09:06:33;;;;;;;;;;;;;;;27.49;100.00;98855.06;5051295;28;19999;-43
2022/08/26 09:08:59;;;;;;;;;;;;;;;27.73;100.00;98856.09;5049948;28;19920;-43
2022/08/26 09:11:24;;;;;;;;;;;;;;;27.80;100.00;98859.75;5051870;28;19920;-43
2022/08/26 09:13:51;;;;;;;;;;;;;;;26.25;100.00;98865.03;5051881;28;19927;-43
2022/08/26 09:16:16;;;;;;;;;;;;;;;26.57;100.00;98861.88;5052415;28;19916;-43
2022/08/26 09:18:51;;;;;;;;;;;;;;;28.01;100.00;98853.19;5052253;28;19920;-43
2022/08/26 09:21:17;;;;;;;;;;;;;;;27.94;100.00;98858.34;5050466;28;20983;-43
2022/08/26 09:23:42;;;;;;;;;;;;;;;27.61;100.00;98857.41;5050644;28;19921;-43
2022/08/26 09:26:18;;;;;;;;;;;;;;;27.08;100.00;98857.53;5051942;28;19966;-43
2022/08/26 09:28:47;;;;;;;;;;;;;;;26.86;100.00;98872.09;5052453;28;19924;-43
2022/08/26 09:31:13;;;;;;;;;;;;;;;27.26;100.00;98873.34;5050328;28;20456;-43
2022/08/26 09:33:39;;;;;;;;;;;;;;;27.67;100.00;98864.72;5050406;28;19926;-43
2022/08/26 09:36:22;;;;;;;;;;;;;;;27.94;100.00;98864.44;5049765;28;19928;-43
2022/08/26 09:38:51;;;;;;;;;;;;;;;27.91;100.00;98858.66;5049877;28;20289;-43
2022/08/26 09:41:21;;;;;;;;;;;;;;;27.66;100.00;98870.97;5051952;28;19921;-44
2022/08/26 09:44:04;;;;;;;;;;;;;;;27.54;100.00;98873.91;5051932;28;20978;-43
2022/08/26 09:46:30;;;;;;;;;;;;;;;27.83;100.00;98867.38;5052009;28;19923;-43
2022/08/26 09:48:55;;;;;;;;;;;;;;;27.82;100.00;98862.25;5048566;28;19920;-43
2022/08/26 09:51:25;;;;;;;;;;;;;;;27.98;100.00;98866.75;5051789;28;19920;-43
2022/08/26 09:53:51;;;;;;;;;;;;;;;28.26;100.00;98846.94;5052020;28;19927;-43
2022/08/26 09:56:23;;;;;;;;;;;;;;;28.28;100.00;98854.69;5051638;28;19917;-43
2022/08/26 09:58:48;;;;;;;;;;;;;;;27.59;100.00;98859.38;5050319;28;20364;-43
2022/08/26 10:01:15;;;;;;;;;;;;;;;27.31;100.00;98863.09;5049923;28;20037;-43
2022/08/26 10:03:40;;;;;;;;;;;;;;;28.19;100.00;98853.88;5048984;28;20457;-44
2022/08/26 10:06:11;;;;;;;;;;;;;;;28.61;100.00;98842.28;5049862;28;19916;-43
2022/08/26 10:08:37;;;;;;;;;;;;;;;28.14;100.00;98837.66;5046624;28;20360;-43
2022/08/26 10:11:05;;;;;;;;;;;;;;;28.34;100.00;98844.25;5050057;28;20430;-43
2022/08/26 10:13:32;;;;;;;;;;;;;;;27.78;100.00;98847.69;5053658;28;19920;-43
2022/08/26 10:16:00;;;;;;;;;;;;;;;27.93;100.00;98838.97;5052296;28;19929;-43
2022/08/26 10:18:47;;;;;;;;;;;;;;;27.97;100.00;98846.59;5053933;28;19920;-43
2022/08/26 10:21:19;;;;;;;;;;;;;;;28.12;100.00;98847.56;5045926;28;19927;-43
2022/08/26 10:23:47;;;;;;;;;;;;;;;27.87;100.00;98841.44;5051898;28;19916;-43
2022/08/26 10:26:14;;;;;;;;;;;;;;;28.07;100.00;98847.25;5053224;28;19981;-43
2022/08/26 10:28:47;;;;;;;;;;;;;;;29.07;100.00;98844.28;5051976;28;19916;-44
2022/08/26 10:31:25;;;;;;;;;;;;;;;28.16;100.00;98848.91;5054461;28;19920;-43
2022/08/26 10:33:51;;;;;;;;;;;;;;;27.52;100.00;98846.78;5047902;28;20348;-43
2022/08/26 10:39:01;;;;;;;;;;;;;;;27.67;100.00;98838.25;5053439;28;19923;-43
2022/08/26 10:41:26;;;;;;;;;;;;;;;27.36;100.00;98848.56;5053248;28;19920;-44
2022/08/26 10:43:55;;;;;;;;;;;;;;;28.54;100.00;98833.34;5052630;28;19917;-43
2022/08/26 10:46:22;;;;;;;;;;;;;;;27.79;100.00;98836.94;5051031;28;19969;-43
2022/08/26 10:48:53;;;;;;;;;;;;;;;28.01;100.00;98821.41;5053766;28;19963;-43
2022/08/26 10:51:23;;;;;;;;;;;;;;;28.67;100.00;98832.81;5053643;28;20618;-43
2022/08/26 10:54:01;;;;;;;;;;;;;;;28.09;100.00;98840.78;5052713;28;19925;-43
2022/08/26 10:56:26;;;;;;;;;;;;;;;28.75;100.00;98835.44;5048883;28;19928;-43
2022/08/26 10:58:57;;;;;;;;;;;;;;;29.58;100.00;98831.47;5055045;28;19954;-43
2022/08/26 11:01:41;;;;;;;;;;;;;;;28.53;100.00;98842.28;5051075;28;20675;-44
2022/08/26 11:04:07;;;;;;;;;;;;;;;27.77;100.00;98846.84;5052507;28;20011;-43
2022/08/26 11:06:32;;;;;;;;;;;;;;;28.45;100.00;98842.28;5051572;28;19916;-43
2022/08/26 11:09:02;;;;;;;;;;;;;;;28.59;100.00;98841.63;5054191;28;19974;-43
2022/08/26 11:11:40;;;;;;;;;;;;;;;28.98;100.00;98835.53;5051861;28;19964;-43
2022/08/26 11:14:17;;;;;;;;;;;;;;;28.95;100.00;98830.59;5054048;28;19920;-43
2022/08/26 11:16:43;;;;;;;;;;;;;;;29.48;100.00;98828.22;5052230;28;19927;-44
2022/08/26 11:19:10;;;;;;;;;;;;;;;28.97;100.00;98829.41;5047741;28;20073;-43
2022/08/26 11:21:51;;;;;;;;;;;;;;;29.64;100.00;98819.34;5049998;28;20289;-43
2022/08/26 11:24:43;;;;;;;;;;;;;;;30.40;100.00;98822.91;5048291;28;20281;-43
2022/08/26 11:27:09;;;;;;;;;;;;;;;29.51;100.00;98825.22;5025570;28;19928;-43
2022/08/26 11:30:03;;;;;;;;;;;;;;;29.41;100.00;98825.44;5054281;28;19920;-43
2022/08/26 11:32:49;;;;;;;;;;;;;;;29.85;100.00;98827.50;5039793;28;19921;-43
2022/08/26 11:35:18;;;;;;;;;;;;;;;30.06;100.00;98818.03;5052626;28;20155;-43
2022/08/26 11:37:47;;;;;;;;;;;;;;;30.72;100.00;98819.09;5053072;28;20006;-43
2022/08/26 11:40:17;;;;;;;;;;;;;;;29.46;100.00;98822.25;5051583;28;19924;-43
2022/08/26 11:42:42;;;;;;;;;;;;;;;30.77;100.00;98816.72;5052129;28;19924;-43
2022/08/26 11:45:18;;;;;;;;;;;;;;;30.74;100.00;98822.41;5052037;28;19916;-43
2022/08/26 11:47:45;;;;;;;;;;;;;;;30.98;100.00;98817.84;5047136;28;20089;-43
2022/08/26 11:50:10;;;;;;;;;;;;;;;30.99;100.00;98811.50;5053103;28;19925;-43
2022/08/26 11:52:35;;;;;;;;;;;;;;;30.97;100.00;98808.22;5053005;28;19940;-43
2022/08/26 11:55:05;;;;;;;;;;;;;;;29.73;100.00;98818.31;5052163;28;20440;-43
2022/08/26 11:57:35;;;;;;;;;;;;;;;29.00;100.00;98817.63;5048003;28;20586;-43
2022/08/26 12:00:00;;;;;;;;;;;;;;;29.20;100.00;98818.09;5048792;28;19974;-43
2022/08/26 12:02:26;;;;;;;;;;;;;;;28.71;100.00;98815.56;5049908;28;19920;-43
2022/08/26 12:04:51;;;;;;;;;;;;;;;28.63;100.00;98810.31;5050149;28;20014;-43
2022/08/26 12:07:20;;;;;;;;;;;;;;;29.32;100.00;98805.25;5049123;28;19982;-43
2022/08/26 12:09:53;;;;;;;;;;;;;;;29.89;100.00;98806.75;5049548;28;19924;-43
2022/08/26 12:12:23;;;;;;;;;;;;;;;29.37;100.00;98809.03;5051121;28;19973;-43
2022/08/26 12:14:48;;;;;;;;;;;;;;;30.16;100.00;98794.75;5050577;28;20381;-43
2022/08/26 12:17:14;;;;;;;;;;;;;;;30.11;100.00;98803.25;5049212;28;19924;-43
2022/08/26 12:19:39;;;;;;;;;;;;;;;29.18;100.00;98802.34;5049189;28;20445;-43
2022/08/26 12:22:17;;;;;;;;;;;;;;;29.68;100.00;98796.78;5052838;28;19943;-43
2022/08/26 12:24:47;;;;;;;;;;;;;;;29.78;100.00;98802.66;5050162;28;19963;-43
2022/08/26 12:27:15;;;;;;;;;;;;;;;29.16;100.00;98795.56;5052257;28;19920;-43
2022/08/26 12:29:40;;;;;;;;;;;;;;;29.96;100.00;98792.56;5053113;28;19995;-43
2022/08/26 12:32:12;;;;;;;;;;;;;;;29.86;100.00;98802.63;5050911;28;20004;-43
2022/08/26 12:34:37;;;;;;;;;;;;;;;29.72;100.00;98800.72;5053555;28;19975;-43
2022/08/26 12:37:02;;;;;;;;;;;;;;;29.07;100.00;98792.09;5049870;28;19924;-43
2022/08/26 12:39:32;;;;;;;;;;;;;;;29.84;100.00;98794.00;5052074;28;19920;-43
2022/08/26 12:41:58;;;;;;;;;;;;;;;29.92;100.00;98783.31;5050578;28;19916;-43
2022/08/26 12:44:35;;;;;;;;;;;;;;;30.27;100.00;98780.19;5052662;28;21177;-43
2022/08/26 12:47:07;;;;;;;;;;;;;;;30.76;100.00;98783.16;5052189;28;19916;-43
2022/08/26 12:49:33;;;;;;;;;;;;;;;30.95;100.00;98776.50;5052369;28;20562;-43
2022/08/26 12:51:58;;;;;;;;;;;;;;;28.84;100.00;98788.53;5052733;28;19926;-43
2022/08/26 12:54:57;;;;;;;;;;;;;;;29.49;100.00;98785.59;5053543;28;19931;-43